createdAt,value
2018-11-28T00:00:38.313Z,74.64
2018-11-28T00:03:08.701Z,74.38
2018-11-28T00:05:38.207Z,74.38
2018-11-28T00:08:07.561Z,74.08
2018-11-28T00:10:37.102Z,74.28
2018-11-28T00:13:06.461Z,73.42
2018-11-28T00:15:35.845Z,73.61
2018-11-28T00:18:05.585Z,73.37
2018-11-28T00:20:34.961Z,73.31
2018-11-28T00:23:04.390Z,72.97
2018-11-28T00:25:33.745Z,72.77
2018-11-28T00:28:03.199Z,72.95
2018-11-28T00:30:32.585Z,72.64
2018-11-28T00:33:02.012Z,72.63
2018-11-28T00:35:31.552Z,72.23
2018-11-28T00:38:00.994Z,72.19
2018-11-28T00:40:30.414Z,72.27
2018-11-28T00:42:59.793Z,72.34
2018-11-28T00:45:29.353Z,72.06
2018-11-28T00:47:58.812Z,71.77
2018-11-28T00:50:28.634Z,71.89
2018-11-28T00:52:57.996Z,72.00
2018-11-28T00:55:27.439Z,72.13
2018-11-28T00:57:56.839Z,72.15
2018-11-28T01:00:27.165Z,72.23
2018-11-28T01:02:56.717Z,72.30
2018-11-28T01:05:26.085Z,71.90
2018-11-28T01:07:56.294Z,72.45
2018-11-28T01:10:26.166Z,72.84
2018-11-28T01:12:55.721Z,72.91
2018-11-28T01:15:25.114Z,72.79
2018-11-28T01:17:54.524Z,73.13
2018-11-28T01:20:24.605Z,72.77
2018-11-28T01:22:53.957Z,73.50
2018-11-28T01:25:23.586Z,73.88
2018-11-28T01:27:53.075Z,73.76
2018-11-28T01:30:24.178Z,73.97
2018-11-28T01:32:53.533Z,74.37
2018-11-28T01:35:23.294Z,73.97
2018-11-28T01:37:52.866Z,74.09
2018-11-28T01:40:24.011Z,74.30
2018-11-28T01:42:53.796Z,75.03
2018-11-28T01:45:24.150Z,74.73
2018-11-28T01:47:53.520Z,75.10
2018-11-28T01:50:23.268Z,75.31
2018-11-28T01:52:52.617Z,75.24
2018-11-28T01:55:22.800Z,75.36
2018-11-28T01:57:52.500Z,75.90
2018-11-28T02:00:23.622Z,76.36
2018-11-28T02:02:57.485Z,76.38
2018-11-28T02:05:26.913Z,76.84
2018-11-28T02:07:56.282Z,77.07
2018-11-28T02:10:25.673Z,77.03
2018-11-28T02:12:54.121Z,77.52
2018-11-28T02:15:25.786Z,77.38
2018-11-28T02:17:56.061Z,77.43
2018-11-28T02:20:25.412Z,77.73
2018-11-28T02:22:54.868Z,77.73
2018-11-28T02:25:24.226Z,77.73
2018-11-28T02:27:53.582Z,78.01
2018-11-28T02:30:22.996Z,78.09
2018-11-28T02:32:52.356Z,78.21
2018-11-28T02:35:21.738Z,78.19
2018-11-28T02:37:51.092Z,78.42
2018-11-28T02:40:20.815Z,78.67
2018-11-28T02:42:50.969Z,78.69
2018-11-28T02:45:22.739Z,78.25
2018-11-28T02:47:53.015Z,78.88
2018-11-28T02:50:22.386Z,78.52
2018-11-28T02:52:51.842Z,78.78
2018-11-28T02:55:21.353Z,78.96
2018-11-28T02:57:51.345Z,79.27
2018-11-28T03:00:23.435Z,79.56
2018-11-28T03:02:53.155Z,79.87
2018-11-28T03:05:22.897Z,80.35
2018-11-28T03:07:52.342Z,81.19
2018-11-28T03:10:23.201Z,81.39
2018-11-28T03:12:52.627Z,81.84
2018-11-28T03:15:54.201Z,81.84
2018-11-28T03:18:24.392Z,82.21
2018-11-28T03:20:53.881Z,82.29
2018-11-28T03:23:23.385Z,82.96
2018-11-28T03:25:52.825Z,83.26
2018-11-28T03:28:22.280Z,83.26
2018-11-28T03:30:51.730Z,83.33
2018-11-28T03:33:21.221Z,83.68
2018-11-28T03:35:50.713Z,83.67
2018-11-28T03:38:20.197Z,84.06
2018-11-28T03:40:49.725Z,84.26
2018-11-28T03:43:19.212Z,84.03
2018-11-28T03:45:48.671Z,84.27
2018-11-28T03:48:22.488Z,84.46
2018-11-28T03:50:52.372Z,84.55
2018-11-28T03:53:21.844Z,84.55
2018-11-28T03:55:51.364Z,84.88
2018-11-28T03:58:20.808Z,85.37
2018-11-28T04:00:50.388Z,85.25
2018-11-28T04:03:19.838Z,85.45
2018-11-28T04:05:49.285Z,85.54
2018-11-28T04:08:18.892Z,85.50
2018-11-28T04:10:48.332Z,85.67
2018-11-28T04:13:17.801Z,85.32
2018-11-28T04:15:47.424Z,85.30
2018-11-28T04:18:16.912Z,85.05
2018-11-28T04:20:46.331Z,85.40
2018-11-28T04:23:15.821Z,85.84
2018-11-28T04:25:45.304Z,86.28
2018-11-28T04:28:14.852Z,86.22
2018-11-28T04:30:44.327Z,86.54
2018-11-28T04:33:13.840Z,86.49
2018-11-28T04:35:43.287Z,86.74
2018-11-28T04:38:12.857Z,86.88
2018-11-28T04:40:42.309Z,87.10
2018-11-28T04:43:11.753Z,87.37
2018-11-28T04:45:41.210Z,87.50
2018-11-28T04:48:10.659Z,87.83
2018-11-28T04:50:40.106Z,87.94
2018-11-28T04:53:09.698Z,88.04
2018-11-28T04:55:39.148Z,88.09
2018-11-28T04:58:08.761Z,88.14
2018-11-28T05:00:38.397Z,88.32
2018-11-28T05:03:07.948Z,88.17
2018-11-28T05:05:37.443Z,88.51
2018-11-28T05:08:07.160Z,88.46
2018-11-28T05:10:36.576Z,88.77
2018-11-28T05:13:06.140Z,89.13
2018-11-28T05:15:35.624Z,89.14
2018-11-28T05:18:05.278Z,89.09
2018-11-28T05:20:35.598Z,89.13
2018-11-28T05:23:06.837Z,89.29
2018-11-28T05:25:36.880Z,89.53
2018-11-28T05:28:06.486Z,89.71
2018-11-28T05:30:36.100Z,89.64
2018-11-28T05:33:06.088Z,89.66
2018-11-28T05:35:40.210Z,89.88
2018-11-28T05:38:13.508Z,89.85
2018-11-28T05:40:44.422Z,90.32
2018-11-28T05:43:13.904Z,90.36
2018-11-28T05:45:43.499Z,90.33
2018-11-28T05:48:12.957Z,90.80
2018-11-28T05:50:42.439Z,90.82
2018-11-28T05:53:11.932Z,91.18
2018-11-28T05:55:41.497Z,91.34
2018-11-28T05:58:10.956Z,91.51
2018-11-28T06:00:41.257Z,91.47
2018-11-28T06:03:13.230Z,91.53
2018-11-28T06:05:43.519Z,91.92
2018-11-28T06:08:13.048Z,92.66
2018-11-28T06:10:42.544Z,92.25
2018-11-28T06:13:12.948Z,92.71
2018-11-28T06:15:42.401Z,92.25
2018-11-28T06:18:11.906Z,92.49
2018-11-28T06:20:41.411Z,92.37
2018-11-28T06:23:10.915Z,92.38
2018-11-28T06:25:40.384Z,92.37
2018-11-28T06:28:09.908Z,92.32
2018-11-28T06:30:39.448Z,92.67
2018-11-28T06:33:08.915Z,93.19
2018-11-28T06:35:38.381Z,93.04
2018-11-28T06:38:07.839Z,93.13
2018-11-28T06:40:37.356Z,93.17
2018-11-28T06:43:07.040Z,93.17
2018-11-28T06:45:39.542Z,93.37
2018-11-28T06:48:08.973Z,93.13
2018-11-28T06:50:38.585Z,93.30
2018-11-28T06:53:08.133Z,93.21
2018-11-28T06:55:37.704Z,93.41
2018-11-28T06:58:07.337Z,93.69
2018-11-28T07:00:36.906Z,93.32
2018-11-28T07:03:06.505Z,93.40
2018-11-28T07:05:35.988Z,93.10
2018-11-28T07:08:06.008Z,93.03
2018-11-28T07:10:35.529Z,92.97
2018-11-28T07:13:05.444Z,93.16
2018-11-28T07:15:34.900Z,93.12
2018-11-28T07:18:21.484Z,92.95
2018-11-28T07:20:50.984Z,92.72
2018-11-28T07:23:20.417Z,92.69
2018-11-28T07:25:49.852Z,92.66
2018-11-28T07:28:19.460Z,92.51
2018-11-28T07:30:48.966Z,92.58
2018-11-28T07:33:18.486Z,92.15
2018-11-28T07:35:47.944Z,91.10
2018-11-28T07:38:17.404Z,89.90
2018-11-28T07:40:46.876Z,88.50
2018-11-28T07:43:16.540Z,86.69
2018-11-28T07:45:49.197Z,85.14
2018-11-28T07:48:18.693Z,83.52
2018-11-28T07:50:48.209Z,82.39
2018-11-28T07:53:17.717Z,80.57
2018-11-28T07:55:47.128Z,79.35
2018-11-28T07:58:16.606Z,78.09
2018-11-28T08:00:46.037Z,76.38
2018-11-28T08:03:15.512Z,75.39
2018-11-28T08:05:45.008Z,74.41
2018-11-28T08:08:14.460Z,73.26
2018-11-28T08:10:43.888Z,71.87
2018-11-28T08:13:13.347Z,70.76
2018-11-28T08:15:42.762Z,69.46
2018-11-28T08:18:12.196Z,69.11
2018-11-28T08:20:41.619Z,67.85
2018-11-28T08:23:11.108Z,67.04
2018-11-28T08:25:40.560Z,66.45
2018-11-28T08:28:09.984Z,65.68
2018-11-28T08:30:39.436Z,64.45
2018-11-28T08:33:08.877Z,63.80
2018-11-28T08:35:38.329Z,63.52
2018-11-28T08:38:07.941Z,62.43
2018-11-28T08:40:37.372Z,62.02
2018-11-28T08:43:07.150Z,61.38
2018-11-28T08:45:37.137Z,60.58
2018-11-28T08:48:06.952Z,60.04
2018-11-28T08:50:38.127Z,59.20
2018-11-28T08:53:08.274Z,58.63
2018-11-28T08:55:37.725Z,57.45
2018-11-28T08:58:07.180Z,56.91
2018-11-28T09:00:37.144Z,56.74
2018-11-28T09:03:07.437Z,56.08
2018-11-28T09:05:36.959Z,56.03
2018-11-28T09:08:06.440Z,55.62
2018-11-28T09:10:35.882Z,54.93
2018-11-28T09:13:05.746Z,54.79
2018-11-28T09:15:35.316Z,54.77
2018-11-28T09:18:05.043Z,54.37
2018-11-28T09:20:34.621Z,54.38
2018-11-28T09:23:04.178Z,54.17
2018-11-28T09:25:33.648Z,52.94
2018-11-28T09:28:03.183Z,53.50
2018-11-28T09:30:32.672Z,53.56
2018-11-28T09:33:02.188Z,53.04
2018-11-28T09:35:31.917Z,52.67
2018-11-28T09:38:01.364Z,53.19
2018-11-28T09:40:30.814Z,52.96
2018-11-28T09:43:00.689Z,52.75
2018-11-28T09:45:30.368Z,52.14
2018-11-28T09:47:59.840Z,51.71
2018-11-28T09:50:29.340Z,50.67
2018-11-28T09:52:58.782Z,50.60
2018-11-28T09:55:29.175Z,50.73
2018-11-28T09:57:59.342Z,50.52
2018-11-28T10:00:29.915Z,51.21
2018-11-28T10:03:02.029Z,51.18
2018-11-28T10:05:34.177Z,50.37
2018-11-28T10:08:03.842Z,51.00
2018-11-28T10:10:33.363Z,51.37
2018-11-28T10:13:02.889Z,51.31
2018-11-28T10:15:35.507Z,52.25
2018-11-28T10:18:01.823Z,52.15
2018-11-28T10:20:31.288Z,53.57
2018-11-28T10:23:00.756Z,53.93
2018-11-28T10:25:30.183Z,54.53
2018-11-28T10:28:05.108Z,55.36
2018-11-28T10:30:36.515Z,55.52
2018-11-28T10:33:09.744Z,55.67
2018-11-28T10:35:40.428Z,56.09
2018-11-28T10:38:10.098Z,56.30
2018-11-28T10:40:39.627Z,56.37
2018-11-28T10:43:10.411Z,56.68
2018-11-28T10:45:39.917Z,56.92
2018-11-28T10:48:11.892Z,57.02
2018-11-28T10:50:41.440Z,57.41
2018-11-28T10:53:10.898Z,57.49
2018-11-28T10:55:40.444Z,57.89
2018-11-28T10:58:10.220Z,57.89
2018-11-28T11:00:44.792Z,58.20
2018-11-28T11:03:19.433Z,58.24
2018-11-28T11:05:54.233Z,58.44
2018-11-28T11:08:25.201Z,58.41
2018-11-28T11:11:31.313Z,58.98
2018-11-28T11:14:05.936Z,59.03
2018-11-28T11:16:35.387Z,59.16
2018-11-28T11:19:04.877Z,59.09
2018-11-28T11:21:34.318Z,59.56
2018-11-28T11:24:03.816Z,59.83
2018-11-28T11:26:33.300Z,59.86
2018-11-28T11:29:02.828Z,60.17
2018-11-28T11:31:32.335Z,60.58
2018-11-28T11:34:02.144Z,60.20
2018-11-28T11:36:31.593Z,60.39
2018-11-28T11:39:01.032Z,60.86
2018-11-28T11:41:30.501Z,60.64
2018-11-28T11:44:00.024Z,61.05
2018-11-28T11:46:29.505Z,60.55
2018-11-28T11:48:59.009Z,60.54
2018-11-28T11:51:28.478Z,60.53
2018-11-28T11:53:57.911Z,60.55
2018-11-28T11:56:27.389Z,60.94
2018-11-28T11:58:56.858Z,60.56
2018-11-28T12:01:26.402Z,60.69
2018-11-28T12:03:55.884Z,60.47
2018-11-28T12:06:25.310Z,60.15
2018-11-28T12:08:56.457Z,61.06
2018-11-28T12:11:25.952Z,61.31
2018-11-28T12:13:55.412Z,60.78
2018-11-28T12:16:24.908Z,60.98
2018-11-28T12:18:54.344Z,61.09
2018-11-28T12:21:23.783Z,60.83
2018-11-28T12:23:53.212Z,61.02
2018-11-28T12:26:22.640Z,60.91
2018-11-28T12:28:52.080Z,61.04
2018-11-28T12:31:21.646Z,61.11
2018-11-28T12:33:51.049Z,60.82
2018-11-28T12:36:20.580Z,61.22
2018-11-28T12:38:50.019Z,60.80
2018-11-28T12:41:19.489Z,61.10
2018-11-28T12:43:48.920Z,61.09
2018-11-28T12:46:18.394Z,60.91
2018-11-28T12:48:47.805Z,61.01
2018-11-28T12:51:17.309Z,60.99
2018-11-28T12:53:46.792Z,61.32
2018-11-28T12:56:16.300Z,61.02
2018-11-28T12:58:45.842Z,61.49
2018-11-28T13:01:15.326Z,61.12
2018-11-28T13:03:44.844Z,61.31
2018-11-28T13:06:14.256Z,61.40
2018-11-28T13:08:43.760Z,61.76
2018-11-28T13:11:13.188Z,61.55
2018-11-28T13:13:42.670Z,61.27
2018-11-28T13:16:12.172Z,61.04
2018-11-28T13:18:41.680Z,61.21
2018-11-28T13:21:11.184Z,61.10
2018-11-28T13:23:40.617Z,61.42
2018-11-28T13:26:17.952Z,61.27
2018-11-28T13:28:47.404Z,61.08
2018-11-28T13:31:16.956Z,61.00
2018-11-28T13:33:46.488Z,61.25
2018-11-28T13:36:15.951Z,60.99
2018-11-28T13:38:45.446Z,61.04
2018-11-28T13:41:14.998Z,61.03
2018-11-28T13:43:44.481Z,60.84
2018-11-28T13:46:13.952Z,61.03
2018-11-28T13:48:43.690Z,61.00
2018-11-28T13:51:13.171Z,60.93
2018-11-28T13:53:42.692Z,60.72
2018-11-28T13:58:41.796Z,61.38
2018-11-28T14:01:11.275Z,61.27
2018-11-28T14:03:40.830Z,61.42
2018-11-28T14:06:10.291Z,61.28
2018-11-28T14:08:39.812Z,61.68
2018-11-28T14:11:09.388Z,61.40
2018-11-28T14:13:38.885Z,61.79
2018-11-28T14:16:08.504Z,61.65
2018-11-28T14:18:38.076Z,62.12
2018-11-28T14:21:08.230Z,62.06
2018-11-28T14:23:37.776Z,62.51
2018-11-28T14:26:07.340Z,62.37
2018-11-28T14:28:36.817Z,62.59
2018-11-28T14:31:07.127Z,62.67
2018-11-28T14:33:36.555Z,63.15
2018-11-28T14:36:06.791Z,63.09
2018-11-28T14:38:36.363Z,63.54
2018-11-28T14:41:06.993Z,63.87
2018-11-28T14:43:36.519Z,63.86
2018-11-28T14:46:06.023Z,63.97
2018-11-28T14:48:35.514Z,64.05
2018-11-28T14:51:05.344Z,64.35
2018-11-28T14:53:34.823Z,64.36
2018-11-28T14:56:04.671Z,64.43
2018-11-28T14:58:34.125Z,64.61
2018-11-28T15:01:03.668Z,64.42
2018-11-28T15:03:33.086Z,65.08
2018-11-28T15:06:08.185Z,65.04
2018-11-28T15:08:38.027Z,65.42
2018-11-28T15:11:10.194Z,65.32
2018-11-28T15:13:40.598Z,65.49
2018-11-28T15:16:10.115Z,65.61
2018-11-28T15:18:39.895Z,65.63
2018-11-28T15:21:11.214Z,65.79
2018-11-28T15:23:41.388Z,66.16
2018-11-28T15:26:10.924Z,66.50
2018-11-28T15:28:40.578Z,66.48
2018-11-28T15:31:10.045Z,66.34
2018-11-28T15:33:39.634Z,66.85
2018-11-28T15:36:09.151Z,66.58
2018-11-28T15:38:38.613Z,66.47
2018-11-28T15:41:08.117Z,66.54
2018-11-28T15:43:37.564Z,66.78
2018-11-28T15:46:07.260Z,66.96
2018-11-28T15:48:36.736Z,67.08
2018-11-28T15:51:06.876Z,67.00
2018-11-28T15:53:36.342Z,67.03
2018-11-28T15:56:06.125Z,66.79
2018-11-28T15:58:35.855Z,67.38
2018-11-28T16:01:05.659Z,67.26
2018-11-28T16:03:35.289Z,67.23
2018-11-28T16:06:04.992Z,67.45
2018-11-28T16:08:34.490Z,67.68
2018-11-28T16:11:08.766Z,67.38
2018-11-28T16:13:38.188Z,67.49
2018-11-28T16:16:08.339Z,67.62
2018-11-28T16:18:37.984Z,67.82
2018-11-28T16:21:07.565Z,67.91
2018-11-28T16:23:37.378Z,67.88
2018-11-28T16:26:06.908Z,68.01
2018-11-28T16:28:36.339Z,67.97
2018-11-28T16:31:05.864Z,68.01
2018-11-28T16:33:35.630Z,68.14
2018-11-28T16:36:05.098Z,68.09
2018-11-28T16:38:34.534Z,68.17
2018-11-28T16:41:04.490Z,68.46
2018-11-28T16:43:33.990Z,68.50
2018-11-28T16:46:03.618Z,68.54
2018-11-28T16:48:33.184Z,68.56
2018-11-28T16:51:02.736Z,68.98
2018-11-28T16:53:32.245Z,69.14
2018-11-28T16:56:01.928Z,69.12
2018-11-28T16:58:31.983Z,69.47
2018-11-28T17:01:01.440Z,69.54
2018-11-28T17:03:30.928Z,69.60
2018-11-28T17:06:00.435Z,69.76
2018-11-28T17:08:30.148Z,69.89
2018-11-28T17:10:59.660Z,70.02
2018-11-28T17:13:29.180Z,69.84
2018-11-28T17:15:58.775Z,70.17
2018-11-28T17:18:28.322Z,70.49
2018-11-28T17:20:57.829Z,70.90
2018-11-28T17:23:27.390Z,70.77
2018-11-28T17:25:57.027Z,71.00
2018-11-28T17:28:26.468Z,71.03
2018-11-28T17:30:55.919Z,71.59
2018-11-28T17:33:25.546Z,71.39
2018-11-28T17:35:55.113Z,71.72
2018-11-28T17:38:24.628Z,71.88
2018-11-28T17:40:54.256Z,71.95
2018-11-28T17:43:23.847Z,72.33
2018-11-28T17:45:53.476Z,72.35
2018-11-28T17:48:22.968Z,72.56
2018-11-28T17:50:52.430Z,72.69
2018-11-28T17:53:22.002Z,72.93
2018-11-28T17:55:56.628Z,72.90
2018-11-28T17:58:26.184Z,72.83
2018-11-28T18:00:55.724Z,73.17
2018-11-28T18:03:25.543Z,73.12
2018-11-28T18:05:55.046Z,73.50
2018-11-28T18:08:24.520Z,73.28
2018-11-28T18:10:54.259Z,73.62
2018-11-28T18:13:23.853Z,73.82
2018-11-28T18:15:55.718Z,73.55
2018-11-28T18:18:26.531Z,74.27
2018-11-28T18:20:56.016Z,74.25
2018-11-28T18:23:25.495Z,74.37
2018-11-28T18:25:55.248Z,74.26
2018-11-28T18:28:24.717Z,74.01
2018-11-28T18:30:54.163Z,74.60
2018-11-28T18:33:23.777Z,74.43
2018-11-28T18:35:53.408Z,74.49
2018-11-28T18:38:23.009Z,74.50
2018-11-28T18:40:52.468Z,75.04
2018-11-28T18:43:22.029Z,74.79
2018-11-28T18:45:54.693Z,75.10
2018-11-28T18:48:24.411Z,75.54
2018-11-28T18:50:53.969Z,75.40
2018-11-28T18:53:23.737Z,75.36
2018-11-28T18:55:53.353Z,75.93
2018-11-28T18:58:22.801Z,75.97
2018-11-28T19:00:52.320Z,76.21
2018-11-28T19:03:21.959Z,76.22
2018-11-28T19:05:51.420Z,76.41
2018-11-28T19:08:21.009Z,76.46
2018-11-28T19:10:50.466Z,76.59
2018-11-28T19:13:20.107Z,76.74
2018-11-28T19:15:49.572Z,76.95
2018-11-28T19:18:19.305Z,76.70
2018-11-28T19:20:48.798Z,77.07
2018-11-28T19:23:18.288Z,77.01
2018-11-28T19:25:50.101Z,77.33
2018-11-28T19:28:17.384Z,77.55
2018-11-28T19:30:46.911Z,77.69
2018-11-28T19:33:16.372Z,77.91
2018-11-28T19:35:45.915Z,78.10
2018-11-28T19:38:16.116Z,78.34
2018-11-28T19:40:58.400Z,78.43
2018-11-28T19:43:27.964Z,78.75
2018-11-28T19:45:58.544Z,78.80
2018-11-28T19:48:28.127Z,78.90
2018-11-28T19:50:57.545Z,79.02
2018-11-28T19:53:27.078Z,79.04
2018-11-28T19:55:56.928Z,79.46
2018-11-28T19:58:26.421Z,79.79
2018-11-28T20:00:55.924Z,79.71
2018-11-28T20:03:25.418Z,79.59
2018-11-28T20:05:55.041Z,79.82
2018-11-28T20:08:24.530Z,80.40
2018-11-28T20:10:54.012Z,80.09
2018-11-28T20:13:23.449Z,80.12
2018-11-28T20:15:53.978Z,80.72
2018-11-28T20:18:23.428Z,80.51
2018-11-28T20:20:52.930Z,81.00
2018-11-28T20:23:22.341Z,80.75
2018-11-28T20:25:51.967Z,80.96
2018-11-28T20:28:21.439Z,81.37
2018-11-28T20:30:50.935Z,81.23
2018-11-28T20:33:20.417Z,81.46
2018-11-28T20:35:50.758Z,81.54
2018-11-28T20:38:27.884Z,81.57
2018-11-28T20:40:57.349Z,81.67
2018-11-28T20:43:26.822Z,81.72
2018-11-28T20:45:56.260Z,81.69
2018-11-28T20:48:25.744Z,81.77
2018-11-28T20:50:55.262Z,82.07
2018-11-28T20:53:24.753Z,82.17
2018-11-28T20:55:54.259Z,81.93
2018-11-28T20:58:23.701Z,81.90
2018-11-28T21:00:53.194Z,82.05
2018-11-28T21:03:22.700Z,82.15
2018-11-28T21:05:52.242Z,82.48
2018-11-28T21:08:21.710Z,82.35
2018-11-28T21:10:51.552Z,82.65
2018-11-28T21:13:21.012Z,83.00
2018-11-28T21:15:50.464Z,82.69
2018-11-28T21:18:20.026Z,82.98
2018-11-28T21:20:49.526Z,82.99
2018-11-28T21:23:20.328Z,83.00
2018-11-28T21:25:50.281Z,83.30
2018-11-28T21:28:19.765Z,83.34
2018-11-28T21:30:49.281Z,83.26
2018-11-28T21:33:18.855Z,83.24
2018-11-28T21:35:51.532Z,83.42
2018-11-28T21:38:21.006Z,83.40
2018-11-28T21:40:50.489Z,83.53
2018-11-28T21:43:19.976Z,83.41
2018-11-28T21:45:49.649Z,83.42
2018-11-28T21:48:19.929Z,83.54
2018-11-28T21:50:49.374Z,83.75
2018-11-28T21:53:18.828Z,83.75
2018-11-28T21:55:48.332Z,83.67
2018-11-28T21:58:17.792Z,83.52
2018-11-28T22:00:47.307Z,83.26
2018-11-28T22:03:16.950Z,83.51
2018-11-28T22:05:46.453Z,83.79
2018-11-28T22:08:15.969Z,83.26
2018-11-28T22:10:45.426Z,83.36
2018-11-28T22:13:14.972Z,83.55
2018-11-28T22:15:44.457Z,82.96
2018-11-28T22:18:13.972Z,83.00
2018-11-28T22:20:43.417Z,83.12
2018-11-28T22:23:12.894Z,82.83
2018-11-28T22:25:42.396Z,82.78
2018-11-28T22:28:11.909Z,82.77
2018-11-28T22:30:41.359Z,82.66
2018-11-28T22:33:10.908Z,82.50
2018-11-28T22:35:40.340Z,82.59
2018-11-28T22:38:09.809Z,82.28
2018-11-28T22:40:39.264Z,82.49
2018-11-28T22:43:08.756Z,82.42
2018-11-28T22:45:38.333Z,82.23
2018-11-28T22:48:07.812Z,82.25
2018-11-28T22:50:37.364Z,82.17
2018-11-28T22:53:07.365Z,82.49
2018-11-28T22:55:37.193Z,82.56
2018-11-28T22:58:07.020Z,82.23
2018-11-28T23:00:41.897Z,82.52
2018-11-28T23:03:11.800Z,82.62
2018-11-28T23:05:51.765Z,82.42
2018-11-28T23:08:22.322Z,82.41
2018-11-28T23:10:52.621Z,82.44
2018-11-28T23:13:24.829Z,82.75
2018-11-28T23:15:54.328Z,82.66
2018-11-28T23:18:23.788Z,82.61
2018-11-28T23:20:53.303Z,82.86
2018-11-28T23:23:22.841Z,82.65
2018-11-28T23:25:52.369Z,83.01
2018-11-28T23:28:21.841Z,82.83
2018-11-28T23:30:51.312Z,83.07
2018-11-28T23:33:20.833Z,83.01
2018-11-28T23:35:50.288Z,82.97
2018-11-28T23:38:19.766Z,83.68
2018-11-28T23:40:49.212Z,83.17
2018-11-28T23:43:18.758Z,83.10
2018-11-28T23:45:48.273Z,83.11
2018-11-28T23:48:17.789Z,83.23
2018-11-28T23:50:47.284Z,83.14
2018-11-28T23:53:16.780Z,83.48
2018-11-28T23:55:46.233Z,83.45
2018-11-28T23:58:15.800Z,83.54
